• Join FlightAware (Why Join?)
  • Login
  • US Flag 
05:17PM EDT


 

Airport Tracker/Info


-or-


 

Live Flight TrackerFlight Track Log ✈ UAL5887 ✈ 26-Apr-2013 ✈ KBNA - KORD

Flight Track Log - Related Links

Times and Time Zones

All times are in EDT time to prevent confusion due to time zone crossing. See the UAL5887 flight status page for this flight to view local times or setup timezone preferences in your user account.

Time Position Orientation Groundspeed Altitude Reporting Facility
EDT Latitude Longitude Course Direction KTS MPH feet Rate Location/Type
08:19AM 36.1500 -86.6667 22° Northeast 158 182 1,200  Level Nashville TRACON
08:20AM 36.1833 -86.6667 360° North 160 184 2,800 1,860 Climbing Nashville TRACON
08:21AM 36.2333 -86.6333 28° Northeast 200 230 4,600 1,800 Climbing Nashville TRACON
08:22AM 36.3000 -86.6167 11° North 273 314 6,500 1,980 Climbing Nashville TRACON
08:23AM 36.3861 -86.5675 25° Northeast 284 327 9,400 1,800 Climbing Memphis Center
08:24AM 36.4622 -86.5303 21° North 289 333 10,900 1,260 Climbing Memphis Center
08:25AM 36.5428 -86.4786 22° Northeast  Level FlightAware Approximate
08:25AM 36.5444 -86.4903 21° North 302 348 12,000  Level Memphis Center
08:26AM 36.6367 -86.4444 22° Northeast 336 387 13,000 1,020 Climbing Memphis Center
08:27AM 36.7331 -86.3958 22° Northeast 362 417 14,100 1,020 Climbing Memphis Center
08:28AM 36.8294 -86.3472 22° Northeast 375 432 15,100 1,080 Climbing Memphis Center
08:29AM 36.9403 -86.2922 22° Northeast 380 437 16,300 1,260 Climbing Memphis Center
08:31AM 37.0986 -86.2131 22° Northeast 380 437 18,500 1,380 Climbing Indianapolis Center
08:32AM 37.1964 -86.1656 21° North 376 433 20,000 1,380 Climbing Indianapolis Center
08:33AM 37.2925 -86.1097 25° Northeast 376 433 21,400 1,140 Climbing Indianapolis Center
08:34AM 37.3889 -86.0453 28° Northeast 386 444 22,400 960 Climbing Indianapolis Center
08:35AM 37.4872 -85.9819 27° Northeast 391 450 23,400 960 Climbing Indianapolis Center
08:37AM 37.6619 -85.9572 North 381 438 25,100 960 Climbing Indianapolis Center
08:38AM 37.7667 -85.9475 North 378 435 26,100 1,020 Climbing Indianapolis Center
08:39AM 37.8714 -85.9372 North 376 433 27,200 960 Climbing Indianapolis Center
08:40AM 37.9758 -85.9272 North 375 432 28,200 960 Climbing Indianapolis Center
08:41AM 38.0778 -85.9172 North 368 423 29,200 960 Climbing Indianapolis Center
08:42AM 38.1803 -85.9086 North 368 423 30,200 1,020 Climbing Indianapolis Center
08:43AM 38.3039 -85.8958 North 369 425 31,400 840 Climbing Indianapolis Center
08:44AM 38.4083 -85.8858 North 373 429 32,000 240 Climbing Indianapolis Center
08:45AM 38.5175 -85.8744 North 389 448 32,000  Level Indianapolis Center
08:46AM 38.6294 -85.8650 North 408 470 32,000  Level Indianapolis Center
08:47AM 38.7411 -85.8539 North 403 464 32,000 -540 Level Indianapolis Center
08:48AM 38.8531 -85.8439 North 402 463 30,900 -1,380 Descending Indianapolis Center
08:49AM 38.9819 -85.8297 North 396 456 29,200 -1,620 Descending Indianapolis Center
08:50AM 39.0911 -85.8197 North 393 452 27,600 -1,500 Descending Indianapolis Center
08:51AM 39.1981 -85.8094 North 384 442 26,200 -780 Descending Indianapolis Center
08:52AM 39.3008 -85.7983 North 370 426 26,000 -120 Descending Indianapolis Center
08:53AM 39.4031 -85.7903 North 368 423 26,000  Level Indianapolis Center
08:54AM 39.5067 -85.7781 North 371 427 26,000  Level Indianapolis Center
08:55AM 39.6136 -85.7675 North 382 440 26,000  Level Indianapolis Center
08:56AM 39.7436 -85.7550 North 399 459 26,000  Level Indianapolis Center
08:57AM 39.8578 -85.7444 North 408 470 26,000  Level Indianapolis Center
08:58AM 39.9717 -85.7322 North 410 472 26,000  Level Indianapolis Center
08:59AM 40.0858 -85.7203 North 410 472 26,000 -420 Level Indianapolis Center
09:00AM 40.1942 -85.7383 353° North 387 445 25,200 -780 Descending Indianapolis Center
09:01AM 40.2219 -85.7642 325° Northwest 379 436 25,000 -420 Descending Chicago Center
09:02AM 40.2958 -85.8525 318° Northwest 361 415 24,700 -660 Descending Chicago Center
09:03AM 40.3722 -85.9469 317° Northwest 373 429 23,700 -840 Descending Chicago Center
09:04AM 40.4600 -86.0567 316° Northwest 373 429 23,000 -360 Descending Chicago Center
09:05AM 40.5344 -86.1469 317° Northwest 366 421 23,000  Level Chicago Center
09:06AM 40.6089 -86.2400 317° Northwest 367 422 23,000  Level Chicago Center
09:07AM 40.6839 -86.3339 317° Northwest 371 427 23,000  Level Chicago Center
09:08AM 40.7592 -86.4275 317° Northwest 371 427 23,000  Level Chicago Center
09:09AM 40.8356 -86.5233 317° Northwest 381 438 23,000 -240 Level Chicago Center
09:10AM 40.9114 -86.6186 316° Northwest 378 435 22,600 -1,140 Descending Chicago Center
09:11AM 40.9881 -86.7144 317° Northwest 378 435 20,700 -2,100 Descending Chicago Center
09:12AM 41.0744 -86.8239 316° Northwest 365 420 18,400 -1,860 Descending Chicago Center
09:13AM 41.1469 -86.9139 317° Northwest 360 414 16,900 -1,860 Descending Chicago Center
09:14AM 41.2150 -87.0006 316° Northwest 344 396 14,600 -2,340 Descending Chicago Center
09:15AM 41.2822 -87.0894 315° West 341 392 12,100 -1,800 Descending Chicago Center
09:16AM 41.3486 -87.1722 317° Northwest 336 387 11,000 -660 Descending Chicago Center
09:17AM 41.4167 -87.2500 319° Northwest 332 382 11,000  Level Chicago TRACON
09:18AM 41.4833 -87.3333 317° Northwest 338 389 11,000  Level Chicago TRACON
09:19AM 41.5500 -87.4167 317° Northwest 337 388 11,000  Level Chicago TRACON
09:19AM 41.5703 -87.4325 330° Northwest 336 387 11,000  Level Chicago Center
09:20AM 41.6414 -87.5117 320° Northwest 335 386 11,000  Level Chicago Center
09:21AM 41.7128 -87.5914 320° Northwest 338 389 11,000  Level Chicago Center
09:22AM 41.7667 -87.6500 321° Northwest 303 349 11,000 -1,020 Level Chicago TRACON
09:23AM 41.8167 -87.7167 315° West 261 300 9,400 -1,440 Descending Chicago TRACON
09:24AM 41.8667 -87.7833 315° West 251 289 8,100 -720 Descending Chicago TRACON
09:25AM 41.8833 -87.8667 285° West 260 299 8,000 -60 Descending Chicago TRACON
09:26AM 41.8833 -87.9500 270° West 224 258 8,000 -480 Level Chicago TRACON
09:27AM 41.8833 -88.0333 270° West 218 251 7,200 -1,140 Descending Chicago TRACON
09:28AM 41.8833 -88.1167 270° West 216 249 5,600 -1,500 Descending Chicago TRACON
09:29AM 41.8836 -88.1589 271° West 214 246 4,800 -1,080 Descending Chicago Center
09:30AM 41.8917 -88.2356 278° West 230 265 4,000 -420 Descending Chicago Center
09:31AM 41.9503 -88.2372 359° North 222 255 4,000  Level Chicago Center
09:32AM 41.9678 -88.1633 72° East 215 247 4,000 -540 Level Chicago Center
09:33AM 41.9683 -88.0872 89° East 209 241 3,000 -1,140 Descending Chicago Center
09:33AM 41.9667 -88.0500 93° East 203 234 2,600 -1,140 Descending Chicago TRACON
09:34AM 41.9667 -87.9833 90° East 152 175 1,600 -900 Descending Chicago TRACON
09:35AM 41.9667 -87.9333 90° East 138 159 900 -720 Descending Chicago TRACON
09:37AM 41.9667 -87.9000 North  Level FlightAware Approximate